Time;durP1;ratioP1;P1;durP2;ratioP2;P2;SDS_P1;SDS_P2;PMS_P1;PMS_P2;Temp;Humidity;BMP_temperature;BMP_pressure;BME280_temperature;BME280_humidity;BME280_pressure;Samples;Min_cycle;Max_cycle;Signal;HPM_P1;HPM_P2
2024/04/02 00:04:19;;;;;;;0.70;0.60;;;;;;;11.25;74.80;97185.39;227162;1272;22533;-81
2024/04/02 00:09:21;;;;;;;1.50;0.90;;;;;;;11.05;75.80;97172.79;227286;1271;22540;-81
2024/04/02 00:14:23;;;;;;;1.00;0.90;;;;;;;10.80;76.85;97191.34;227359;1270;22542;-80
2024/04/02 00:19:25;;;;;;;1.10;0.70;;;;;;;10.58;77.31;97186.00;227129;1267;22551;-80
2024/04/02 00:24:27;;;;;;;1.30;0.90;;;;;;;10.42;77.76;97180.85;227130;1270;22547;-81
2024/04/02 00:29:28;;;;;;;0.70;0.70;;;;;;;10.31;78.47;97161.73;227019;1272;22569;-80
2024/04/02 00:34:30;;;;;;;1.20;1.10;;;;;;;10.22;79.03;97147.20;227093;1270;22536;-80
2024/04/02 00:39:32;;;;;;;1.50;1.10;;;;;;;10.11;79.58;97142.52;227311;1270;22535;-80
2024/04/02 00:44:34;;;;;;;0.90;0.80;;;;;;;10.02;79.74;97146.19;227255;1272;22540;-80
2024/04/02 00:49:37;;;;;;;1.70;1.40;;;;;;;9.97;80.39;97152.95;227134;1271;24337;-80
2024/04/02 00:54:39;;;;;;;2.00;1.80;;;;;;;9.94;80.55;97163.92;227126;1272;24219;-81
2024/04/02 00:59:41;;;;;;;2.00;1.80;;;;;;;9.94;80.50;97163.39;227208;1271;22559;-81
2024/04/02 01:04:47;;;;;;;2.10;2.00;;;;;;;9.92;81.15;97148.24;227374;1267;23125;-81
2024/04/02 01:09:49;;;;;;;2.50;2.30;;;;;;;9.86;81.35;97138.40;227325;1270;22517;-82
2024/04/02 01:14:51;;;;;;;2.30;2.10;;;;;;;9.83;81.38;97142.79;226977;1272;192130;-80
2024/04/02 01:19:53;;;;;;;2.40;2.30;;;;;;;9.81;81.84;97156.33;227220;1272;22681;-81
2024/04/02 01:25:01;;;;;;;2.70;2.40;;;;;;;9.80;81.85;97170.13;227340;1270;22516;-80
2024/04/02 01:30:03;;;;;;;3.90;3.40;;;;;;;9.81;82.04;97186.77;227119;1267;22542;-80
2024/04/02 01:35:05;;;;;;;1.70;1.60;;;;;;;9.79;82.40;97196.22;227223;1272;25403;-79
2024/04/02 01:40:08;;;;;;;2.60;2.20;;;;;;;9.75;82.41;97192.85;227305;1270;24212;-80
2024/04/02 01:45:09;;;;;;;2.70;2.40;;;;;;;9.73;82.73;97191.52;227166;1272;22550;-80
2024/04/02 01:50:11;;;;;;;2.20;2.10;;;;;;;9.70;82.63;97188.52;227107;1270;22539;-80
2024/04/02 01:55:13;;;;;;;3.50;2.50;;;;;;;9.66;82.95;97192.35;227046;1254;22546;-80
2024/04/02 02:00:16;;;;;;;2.60;2.30;;;;;;;9.59;82.87;97190.01;227346;1266;22558;-81
2024/04/02 02:05:18;;;;;;;2.20;2.00;;;;;;;9.53;83.23;97188.27;227132;1269;22534;-80
2024/04/02 02:10:20;;;;;;;2.10;2.00;;;;;;;9.47;83.12;97181.79;227071;1270;22545;-79
2024/04/02 02:15:21;;;;;;;2.30;2.00;;;;;;;9.44;83.44;97181.98;227132;1272;22910;-81
2024/04/02 02:20:23;;;;;;;2.50;2.30;;;;;;;9.39;83.47;97174.39;227338;1267;22553;-80
2024/04/02 02:25:25;;;;;;;3.00;2.30;;;;;;;9.35;83.61;97173.39;227151;1272;22539;-80
2024/04/02 02:30:27;;;;;;;4.20;3.30;;;;;;;9.32;83.57;97169.79;227114;1265;22600;-81
2024/04/02 02:35:29;;;;;;;3.50;3.20;;;;;;;9.30;84.17;97172.20;227101;1270;22540;-80
2024/04/02 02:40:31;;;;;;;4.70;4.30;;;;;;;9.29;84.20;97171.48;227295;1264;22540;-80
2024/04/02 02:45:33;;;;;;;4.60;4.20;;;;;;;9.26;84.32;97170.45;227230;1272;22542;-81
2024/04/02 02:50:35;;;;;;;5.50;5.00;;;;;;;9.23;84.45;97159.33;227059;1266;22586;-80
2024/04/02 02:55:37;;;;;;;6.10;5.60;;;;;;;9.22;84.57;97150.70;227105;1267;22567;-80
2024/04/02 03:00:39;;;;;;;5.00;4.60;;;;;;;9.21;84.79;97152.53;227155;1270;22535;-81
2024/04/02 03:05:41;;;;;;;5.40;5.00;;;;;;;9.17;85.02;97157.09;227387;1269;22538;-79
2024/04/02 03:10:53;;;;;;;4.40;3.90;;;;;;;9.13;85.05;97169.86;227104;1270;22535;-79
2024/04/02 03:15:55;;;;;;;3.60;3.30;;;;;;;9.06;85.27;97164.74;227168;1269;22536;-80
2024/04/02 03:20:59;;;;;;;2.90;2.70;;;;;;;8.99;85.56;97167.89;227128;1267;23177;-80
2024/04/02 03:26:02;;;;;;;3.70;3.20;;;;;;;8.91;85.71;97163.91;227177;1272;25403;-81
2024/04/02 03:31:04;;;;;;;3.50;3.20;;;;;;;8.86;85.93;97174.98;227152;1254;22580;-81
2024/04/02 03:36:08;;;;;;;3.70;3.40;;;;;;;8.81;86.10;97175.94;227222;1272;23454;-81
2024/04/02 03:41:12;;;;;;;3.60;3.30;;;;;;;8.79;86.30;97178.55;227162;1266;22540;-81
2024/04/02 03:46:14;;;;;;;5.10;3.50;;;;;;;8.77;86.62;97183.02;227112;1270;22583;-80
2024/04/02 03:51:16;;;;;;;4.20;3.80;;;;;;;8.69;86.86;97182.58;227111;1272;22571;-80
2024/04/02 03:56:18;;;;;;;4.80;4.30;;;;;;;8.59;87.01;97178.65;227159;1272;24351;-81
2024/04/02 04:01:20;;;;;;;4.40;4.00;;;;;;;8.49;86.93;97178.44;227128;1267;22555;-80
2024/04/02 04:06:22;;;;;;;5.00;4.20;;;;;;;8.37;87.08;97190.79;227184;1267;22557;-81
2024/04/02 04:11:24;;;;;;;5.30;4.30;;;;;;;8.25;87.30;97204.04;227066;1269;22564;-80
2024/04/02 04:16:29;;;;;;;5.70;4.50;;;;;;;8.15;87.38;97213.85;227297;1267;23023;-80
2024/04/02 04:21:31;;;;;;;5.30;4.80;;;;;;;8.04;87.94;97228.06;227111;1272;22539;-80
2024/04/02 04:26:33;;;;;;;5.60;5.00;;;;;;;7.97;87.72;97233.01;227003;1272;22635;-80
2024/04/02 04:31:44;;;;;;;6.20;5.30;;;;;;;7.90;87.87;97237.48;227210;1272;22542;-81
2024/04/02 04:36:46;;;;;;;6.20;4.70;;;;;;;7.85;88.29;97245.64;226943;1272;24867;-80
2024/04/02 04:41:48;;;;;;;6.30;4.80;;;;;;;7.82;88.47;97248.40;227162;1272;24223;-80
2024/04/02 04:46:50;;;;;;;6.00;5.10;;;;;;;7.81;88.26;97254.15;227275;1270;22552;-80
2024/04/02 04:51:52;;;;;;;6.40;5.70;;;;;;;7.80;88.42;97255.27;227091;1270;22546;-81
2024/04/02 04:56:55;;;;;;;5.90;5.40;;;;;;;7.81;88.42;97257.30;227100;1272;22578;-80
2024/04/02 05:01:57;;;;;;;6.30;5.10;;;;;;;7.81;88.49;97262.16;227179;1270;22572;-81
2024/04/02 05:06:59;;;;;;;5.90;5.30;;;;;;;7.75;88.85;97256.74;227090;1272;22623;-80
2024/04/02 05:12:01;;;;;;;5.80;5.00;;;;;;;7.68;89.08;97252.05;226995;1272;23072;-79
2024/04/02 05:17:03;;;;;;;6.20;5.30;;;;;;;7.62;88.98;97253.27;227107;1270;22532;-81
2024/04/02 05:22:06;;;;;;;5.90;5.30;;;;;;;7.58;89.44;97254.92;227084;1269;22537;-81
2024/04/02 05:27:08;;;;;;;8.50;6.50;;;;;;;7.56;89.28;97272.64;227037;1256;22536;-81
2024/04/02 05:32:10;;;;;;;7.00;6.00;;;;;;;7.55;89.54;97283.23;227081;1272;22558;-82
2024/04/02 05:37:12;;;;;;;6.60;6.00;;;;;;;7.54;89.01;97288.08;227140;1270;22573;-81
2024/04/02 05:42:14;;;;;;;25.90;6.80;;;;;;;7.54;89.42;97295.84;227052;1269;22611;-81
2024/04/02 05:47:16;;;;;;;9.70;7.10;;;;;;;7.53;89.22;97316.29;227175;1260;22535;-80
2024/04/02 05:52:18;;;;;;;7.60;6.80;;;;;;;7.52;89.60;97317.42;227062;1272;22589;-83
2024/04/02 05:57:20;;;;;;;9.00;6.60;;;;;;;7.53;89.72;97331.37;226596;1263;22593;-82
2024/04/02 06:02:23;;;;;;;6.60;6.00;;;;;;;7.54;89.35;97343.70;226678;1262;22460;-80
2024/04/02 06:07:25;;;;;;;7.60;6.90;;;;;;;7.52;89.46;97342.86;226586;1265;24299;-84
2024/04/02 06:12:27;;;;;;;6.50;5.10;;;;;;;7.49;89.06;97342.33;226393;1269;22559;-77
2024/04/02 06:17:30;;;;;;;5.70;5.10;;;;;;;7.46;89.18;97338.44;226603;1269;22566;-81
2024/04/02 06:22:32;;;;;;;5.70;5.10;;;;;;;7.41;89.30;97336.20;226672;1269;22580;-77
2024/04/02 06:27:34;;;;;;;4.90;4.50;;;;;;;7.39;89.45;97340.36;226573;1266;22532;-76
2024/04/02 06:32:37;;;;;;;5.30;4.80;;;;;;;7.38;89.35;97347.36;226884;1268;24337;-76
2024/04/02 06:37:38;;;;;;;5.50;4.70;;;;;;;7.37;89.21;97356.65;226616;1265;23662;-78
2024/04/02 06:42:41;;;;;;;8.20;5.20;;;;;;;7.35;88.96;97353.30;226552;1270;25443;-75
2024/04/02 06:47:42;;;;;;;5.80;4.20;;;;;;;7.36;89.26;97379.33;226550;1272;23301;-76
2024/04/02 06:52:44;;;;;;;5.20;4.10;;;;;;;7.38;88.83;97398.77;226554;1266;22539;-75
2024/04/02 06:57:46;;;;;;;4.60;3.60;;;;;;;7.40;88.56;97401.69;226573;1264;25336;-75
2024/04/02 07:02:48;;;;;;;3.70;3.30;;;;;;;7.43;88.45;97417.23;226451;1268;22581;-75
2024/04/02 07:07:50;;;;;;;3.50;3.20;;;;;;;7.47;88.16;97434.58;226464;1259;22537;-75
2024/04/02 07:12:52;;;;;;;4.20;3.40;;;;;;;7.50;88.32;97442.08;226645;1273;22529;-77
2024/04/02 07:17:54;;;;;;;3.20;2.90;;;;;;;7.54;88.20;97441.75;226587;1262;22563;-76
2024/04/02 07:22:56;;;;;;;4.00;3.50;;;;;;;7.58;87.98;97450.35;226488;1266;22535;-77
2024/04/02 07:27:58;;;;;;;5.40;4.00;;;;;;;7.63;87.87;97451.36;226605;1272;22549;-76
2024/04/02 07:33:00;;;;;;;10.40;5.70;;;;;;;7.70;87.93;97449.44;226371;1269;22551;-77
2024/04/02 07:38:02;;;;;;;7.40;6.00;;;;;;;7.82;87.90;97453.23;226402;1266;22578;-76
2024/04/02 07:43:07;;;;;;;4.40;4.00;;;;;;;7.95;87.59;97452.05;226652;1251;24229;-76
2024/04/02 07:48:09;;;;;;;6.00;4.10;;;;;;;8.06;87.79;97450.73;226809;1271;22532;-76
2024/04/02 07:53:11;;;;;;;5.20;3.90;;;;;;;8.17;87.68;97460.64;226777;1269;22573;-75
2024/04/02 07:58:13;;;;;;;6.10;4.60;;;;;;;8.31;87.36;97462.86;226691;1273;22974;-78
2024/04/02 08:03:15;;;;;;;4.30;3.80;;;;;;;8.46;87.26;97453.71;226792;1273;22528;-76
2024/04/02 08:08:17;;;;;;;4.90;4.20;;;;;;;8.63;87.21;97452.53;226732;1269;22553;-75
2024/04/02 08:13:19;;;;;;;4.80;4.20;;;;;;;8.72;87.17;97457.81;226779;1251;22993;-76
2024/04/02 08:18:23;;;;;;;4.40;3.90;;;;;;;8.79;87.23;97467.01;226835;1265;22546;-76
2024/04/02 08:23:25;;;;;;;4.60;3.70;;;;;;;8.84;86.83;97479.47;226747;1272;24922;-75
2024/04/02 08:28:27;;;;;;;5.50;4.30;;;;;;;8.89;86.84;97492.91;226877;1266;25272;-76
2024/04/02 08:33:29;;;;;;;4.20;3.70;;;;;;;9.03;86.74;97498.11;226827;1260;22556;-76
2024/04/02 08:38:31;;;;;;;4.10;3.50;;;;;;;9.18;86.43;97505.90;226745;1250;24248;-76
2024/04/02 08:43:33;;;;;;;4.20;3.40;;;;;;;9.31;86.52;97505.56;226666;1272;22571;-75
2024/04/02 08:48:35;;;;;;;5.00;3.40;;;;;;;9.40;86.07;97504.36;226742;1266;22535;-79
2024/04/02 08:53:39;;;;;;;3.90;3.20;;;;;;;9.53;85.85;97511.23;226832;1266;22585;-77
2024/04/02 08:58:43;;;;;;;4.10;2.90;;;;;;;9.64;85.59;97522.84;226876;1266;23007;-75
2024/04/02 09:03:46;;;;;;;3.40;3.10;;;;;;;9.82;85.24;97522.64;226437;1254;25413;-76
2024/04/02 09:08:48;;;;;;;3.40;3.00;;;;;;;9.93;84.92;97531.65;226500;1250;23036;-75
2024/04/02 09:13:50;;;;;;;3.40;2.90;;;;;;;9.99;84.18;97539.64;226629;1267;22581;-76
2024/04/02 09:18:52;;;;;;;4.80;2.60;;;;;;;10.03;84.13;97544.80;226775;1272;22607;-76
2024/04/02 09:23:55;;;;;;;2.80;2.40;;;;;;;10.11;83.66;97555.83;226611;1273;22706;-76
2024/04/02 09:28:57;;;;;;;3.20;2.00;;;;;;;10.20;83.65;97563.94;226825;1257;22535;-76
2024/04/02 09:34:05;;;;;;;2.50;2.20;;;;;;;10.34;83.36;97573.09;226817;1266;22526;-74
2024/04/02 09:39:10;;;;;;;2.80;2.40;;;;;;;10.49;83.27;97574.39;226833;1266;22537;-76
2024/04/02 09:44:14;;;;;;;2.50;2.30;;;;;;;10.64;82.85;97573.89;226649;1267;22565;-75
2024/04/02 09:49:20;;;;;;;3.20;2.70;;;;;;;10.79;82.51;97571.48;226905;1266;22531;-75
2024/04/02 09:54:22;;;;;;;2.30;2.10;;;;;;;10.94;81.99;97570.45;226667;1267;24379;-75
2024/04/02 09:59:25;;;;;;;2.60;2.40;;;;;;;11.05;81.96;97564.67;226722;1265;22558;-75
2024/04/02 10:04:27;;;;;;;2.30;2.10;;;;;;;11.17;81.46;97564.29;226666;1273;22546;-75
2024/04/02 10:09:42;;;;;;;2.20;2.00;;;;;;;11.25;81.10;97571.84;226625;1269;22535;-75
2024/04/02 10:14:44;;;;;;;2.40;2.20;;;;;;;11.21;80.56;97573.88;226977;1266;22634;-76
2024/04/02 10:19:46;;;;;;;4.10;2.80;;;;;;;11.18;80.39;97582.25;226764;1269;25332;-75
2024/04/02 10:25:02;;;;;;;3.90;2.70;;;;;;;11.23;80.36;97583.62;226803;1263;22560;-75
2024/04/02 10:30:18;;;;;;;4.80;3.70;;;;;;;11.23;80.19;97594.52;226721;1270;22543;-75
2024/04/02 10:35:25;;;;;;;5.10;2.60;;;;;;;11.25;79.88;97612.53;226786;1267;22587;-75
2024/04/02 10:40:28;;;;;;;3.10;2.80;;;;;;;11.07;79.75;97627.35;226564;1272;25048;-76
2024/04/02 10:45:31;;;;;;;3.80;3.50;;;;;;;10.77;80.18;97618.19;226696;1272;22657;-77
2024/04/02 10:50:33;;;;;;;4.40;4.10;;;;;;;10.59;80.89;97621.80;226851;1269;22582;-76
2024/04/02 10:55:35;;;;;;;4.80;4.00;;;;;;;10.53;81.06;97623.48;226833;1270;22535;-76
2024/04/02 11:00:36;;;;;;;4.40;4.00;;;;;;;10.55;81.03;97625.86;226875;1269;22528;-77
2024/04/02 11:05:41;;;;;;;4.40;4.00;;;;;;;10.73;81.49;97636.42;226844;1267;22564;-77
2024/04/02 11:10:50;;;;;;;4.50;4.10;;;;;;;11.05;81.08;97641.23;226777;1272;22538;-76
2024/04/02 11:15:52;;;;;;;6.90;6.10;;;;;;;11.31;80.68;97645.60;226759;1269;22531;-76
2024/04/02 11:20:58;;;;;;;3.80;3.50;;;;;;;11.60;80.22;97645.39;226748;1269;25511;-79
2024/04/02 11:26:06;;;;;;;3.30;3.00;;;;;;;11.89;79.24;97647.30;226648;1272;22711;-76
2024/04/02 11:31:14;;;;;;;3.40;3.10;;;;;;;12.05;78.98;97656.67;226832;1272;22607;-76
2024/04/02 11:36:16;;;;;;;3.10;2.40;;;;;;;12.21;78.94;97655.98;226831;1266;25407;-76
2024/04/02 11:41:18;;;;;;;2.60;2.40;;;;;;;12.21;77.52;97662.08;226615;1269;22557;-77
2024/04/02 11:46:21;;;;;;;2.10;1.90;;;;;;;12.04;77.18;97669.08;226757;1272;22581;-73
2024/04/02 11:51:23;;;;;;;3.10;2.00;;;;;;;12.02;77.20;97660.15;226691;1272;22901;-76
2024/04/02 12:00:00;;;;;;;2.10;2.00;;;;;;;12.19;76.94;97661.70;227122;1272;24347;-74
2024/04/02 12:01:47;;;;;;;2.70;1.90;;;;;;;12.55;76.60;97663.52;226752;1266;22585;-77
2024/04/02 12:06:48;;;;;;;4.70;1.80;;;;;;;12.93;76.26;97662.19;226651;1266;23032;-77
2024/04/02 12:11:51;;;;;;;3.50;1.80;;;;;;;13.31;76.02;97654.24;226838;1272;22531;-78
2024/04/02 12:16:56;;;;;;;2.00;1.40;;;;;;;13.52;74.54;97645.02;226708;1274;24270;-76
2024/04/02 12:21:58;;;;;;;1.80;1.40;;;;;;;13.65;73.79;97649.86;226667;1274;22542;-77
2024/04/02 12:27:00;;;;;;;2.10;1.30;;;;;;;13.91;73.59;97649.52;226859;1269;23052;-77
2024/04/02 12:32:05;;;;;;;2.10;1.20;;;;;;;14.25;72.94;97644.49;226839;1260;22547;-76
2024/04/02 12:37:07;;;;;;;1.20;1.10;;;;;;;14.49;71.94;97638.20;226898;1269;22523;-77
2024/04/02 12:42:13;;;;;;;1.50;1.00;;;;;;;14.71;71.27;97644.67;226881;1269;22540;-77
2024/04/02 12:47:15;;;;;;;2.30;1.00;;;;;;;14.89;70.19;97639.79;226870;1272;26128;-77
2024/04/02 12:52:17;;;;;;;1.10;1.00;;;;;;;14.92;68.99;97635.84;226839;1273;22542;-77
2024/04/02 12:57:19;;;;;;;2.10;1.00;;;;;;;14.70;68.40;97637.48;226867;1269;22527;-76
2024/04/02 13:02:21;;;;;;;2.80;1.30;;;;;;;14.28;68.66;97677.45;226819;1250;22574;-78
2024/04/02 13:07:22;;;;;;;1.50;1.20;;;;;;;13.47;70.82;97680.23;227004;1266;22670;-78
2024/04/02 13:12:24;;;;;;;1.20;1.10;;;;;;;12.83;71.39;97679.98;226814;1266;22543;-79
2024/04/02 13:17:26;;;;;;;4.40;3.50;;;;;;;12.51;72.31;97672.64;226501;1272;495138;-79
2024/04/02 13:22:28;;;;;;;1.90;1.40;;;;;;;12.50;72.93;97668.89;226883;1273;22531;-78
2024/04/02 13:27:30;;;;;;;2.10;1.60;;;;;;;12.59;72.89;97662.13;226739;1263;22558;-77
2024/04/02 13:32:32;;;;;;;2.00;1.40;;;;;;;12.73;73.32;97655.58;226794;1270;25328;-79
2024/04/02 13:37:34;;;;;;;2.40;1.70;;;;;;;12.86;73.44;97655.27;226600;1272;22557;-78
2024/04/02 13:42:35;;;;;;;2.30;1.50;;;;;;;13.04;73.67;97656.87;226680;1270;22539;-78
2024/04/02 13:47:37;;;;;;;1.70;1.60;;;;;;;13.18;73.22;97649.09;226724;1273;22537;-77
2024/04/02 13:52:39;;;;;;;2.40;1.80;;;;;;;13.22;72.64;97651.14;226917;1272;22571;-83
2024/04/02 13:57:41;;;;;;;2.30;2.10;;;;;;;13.12;72.73;97653.39;226767;1270;22994;-83
2024/04/02 14:02:43;;;;;;;1.70;1.60;;;;;;;13.09;72.78;97646.41;226649;1269;25313;-80
2024/04/02 14:07:47;;;;;;;1.70;1.60;;;;;;;13.03;72.67;97646.35;226561;1270;22543;-82
2024/04/02 14:12:49;;;;;;;1.60;1.50;;;;;;;12.87;72.06;97654.20;226584;1273;22534;-82
2024/04/02 14:17:51;;;;;;;0.90;0.50;;;;;;;12.60;71.07;97684.41;226652;1270;22540;-82
2024/04/02 14:22:53;;;;;;;0.90;0.60;;;;;;;12.02;70.91;97688.04;226655;1273;22542;-82
2024/04/02 14:27:57;;;;;;;2.60;1.10;;;;;;;11.45;72.06;97695.69;226690;1273;22810;-80
2024/04/02 14:32:59;;;;;;;3.00;1.50;;;;;;;11.19;73.07;97675.06;226879;1270;24322;-81
2024/04/02 14:38:01;;;;;;;2.10;1.40;;;;;;;11.09;73.88;97677.16;226955;1272;22578;-80
2024/04/02 14:43:04;;;;;;;2.20;1.70;;;;;;;11.07;74.57;97673.92;226768;1273;22553;-81
2024/04/02 14:48:06;;;;;;;2.80;1.80;;;;;;;11.19;74.93;97675.60;226867;1272;25393;-81
2024/04/02 14:53:08;;;;;;;4.10;1.90;;;;;;;11.38;75.30;97681.93;226884;1267;22535;-81
2024/04/02 14:58:10;;;;;;;3.50;2.30;;;;;;;11.55;75.61;97678.14;226828;1270;22547;-82
2024/04/02 15:03:16;;;;;;;5.00;3.00;;;;;;;11.59;75.33;97682.38;226805;1270;22615;-84
2024/04/02 15:08:18;;;;;;;5.50;2.50;;;;;;;11.52;74.93;97699.90;226790;1269;22548;-82
2024/04/02 15:13:20;;;;;;;2.70;2.00;;;;;;;11.38;75.27;97707.16;226799;1269;23744;-82
2024/04/02 15:18:22;;;;;;;3.70;1.70;;;;;;;11.15;76.00;97707.52;226992;1272;22525;-83
2024/04/02 15:23:24;;;;;;;2.50;1.30;;;;;;;10.84;76.22;97705.55;226900;1272;23040;-83
2024/04/02 15:28:26;;;;;;;3.20;1.80;;;;;;;10.70;76.52;97701.40;226875;1273;22535;-83
2024/04/02 15:33:28;;;;;;;3.00;1.90;;;;;;;10.69;76.46;97705.91;226795;1269;22538;-83
2024/04/02 15:38:30;;;;;;;3.70;1.80;;;;;;;10.81;76.80;97705.70;226935;1273;22840;-83
2024/04/02 15:43:32;;;;;;;2.30;1.50;;;;;;;10.94;76.99;97707.25;226852;1270;23478;-82
2024/04/02 15:48:33;;;;;;;2.00;1.30;;;;;;;11.10;77.06;97711.91;226875;1272;22546;-82
2024/04/02 15:53:37;;;;;;;2.40;1.40;;;;;;;11.26;77.25;97712.94;226831;1273;22568;-82
2024/04/02 15:58:39;;;;;;;3.00;1.50;;;;;;;11.44;77.25;97717.27;226842;1267;24199;-83
2024/04/02 16:03:41;;;;;;;3.40;1.50;;;;;;;11.53;77.17;97720.57;226821;1270;22545;-82
2024/04/02 16:08:44;;;;;;;2.00;1.70;;;;;;;11.56;76.88;97722.24;226859;1273;22639;-82
2024/04/02 16:13:48;;;;;;;2.00;1.70;;;;;;;11.59;76.79;97726.88;226812;1273;22562;-82
2024/04/02 16:18:52;;;;;;;1.90;1.60;;;;;;;11.65;76.50;97726.70;226855;1273;24369;-81
2024/04/02 16:23:56;;;;;;;1.70;1.60;;;;;;;11.76;76.40;97731.92;226791;1273;22577;-82
2024/04/02 16:28:58;;;;;;;2.90;2.00;;;;;;;11.84;76.35;97739.27;226840;1270;22542;-81
2024/04/02 16:34:00;;;;;;;2.00;1.60;;;;;;;11.90;76.46;97737.95;226811;1272;22543;-82
2024/04/02 16:39:03;;;;;;;3.00;1.40;;;;;;;11.92;76.24;97738.95;226819;1273;22547;-83
2024/04/02 16:44:06;;;;;;;2.10;1.50;;;;;;;11.90;75.80;97737.17;226772;1273;22555;-82
2024/04/02 16:49:07;;;;;;;2.20;1.60;;;;;;;11.86;75.82;97739.92;226913;1271;22546;-81
2024/04/02 16:54:11;;;;;;;3.40;1.90;;;;;;;11.80;75.58;97737.46;226862;1271;22535;-82
2024/04/02 16:59:13;;;;;;;3.10;1.80;;;;;;;11.74;75.04;97730.22;226837;1273;22566;-83
2024/04/02 17:04:17;;;;;;;4.10;1.90;;;;;;;11.72;74.61;97735.50;226832;1266;22543;-82
2024/04/02 17:09:19;;;;;;;3.00;1.80;;;;;;;11.70;74.37;97738.73;226832;1272;22536;-82
2024/04/02 17:14:21;;;;;;;3.80;1.50;;;;;;;11.65;74.16;97744.48;226944;1273;22546;-82
2024/04/02 17:19:23;;;;;;;3.20;1.40;;;;;;;11.59;73.31;97749.10;226792;1273;22535;-81
2024/04/02 17:24:25;;;;;;;1.50;1.10;;;;;;;11.55;73.28;97750.99;226949;1272;22696;-81
2024/04/02 17:29:26;;;;;;;2.10;1.60;;;;;;;11.49;73.14;97761.41;226861;1273;22535;-82
2024/04/02 17:34:28;;;;;;;1.60;1.40;;;;;;;11.46;72.86;97767.59;226839;1273;22551;-81
2024/04/02 17:39:30;;;;;;;3.40;1.40;;;;;;;11.41;72.67;97769.23;226774;1273;22610;-82
2024/04/02 17:44:35;;;;;;;3.10;2.10;;;;;;;11.34;72.81;97779.09;226806;1273;22555;-82
2024/04/02 17:49:37;;;;;;;6.00;2.80;;;;;;;11.26;73.01;97787.23;226979;1273;22532;-84
2024/04/02 17:54:39;;;;;;;3.10;2.20;;;;;;;11.18;72.69;97790.90;226781;1273;22655;-84
2024/04/02 17:59:40;;;;;;;4.60;2.50;;;;;;;11.16;72.25;97790.39;226873;1273;22733;-81
2024/04/02 18:04:42;;;;;;;4.60;2.70;;;;;;;11.14;72.02;97792.39;226881;1273;22535;-81
2024/04/02 18:09:44;;;;;;;8.40;2.30;;;;;;;11.13;72.30;97788.08;226858;1269;22543;-83
2024/04/02 18:14:46;;;;;;;2.20;1.70;;;;;;;11.11;71.91;97796.75;226825;1270;22549;-81
2024/04/02 18:19:47;;;;;;;3.00;1.90;;;;;;;11.11;71.74;97812.25;226855;1273;22523;-82
2024/04/02 18:24:49;;;;;;;3.60;2.50;;;;;;;11.10;72.02;97827.42;226852;1270;25240;-83
2024/04/02 18:29:51;;;;;;;3.00;2.10;;;;;;;11.08;71.79;97840.85;226855;1270;22551;-81
2024/04/02 18:34:53;;;;;;;3.00;1.40;;;;;;;11.08;71.17;97846.30;226875;1273;22484;-82
2024/04/02 18:40:00;;;;;;;3.60;1.90;;;;;;;11.09;70.76;97851.66;226944;1267;22569;-84
2024/04/02 18:45:03;;;;;;;4.40;2.90;;;;;;;11.10;71.08;97865.52;226987;1273;22594;-83
2024/04/02 18:50:05;;;;;;;2.90;1.80;;;;;;;11.07;70.47;97871.43;226953;1273;22579;-83
2024/04/02 18:55:07;;;;;;;1.90;1.30;;;;;;;11.03;70.62;97868.00;226829;1273;25412;-84
2024/04/02 19:00:10;;;;;;;1.90;1.00;;;;;;;10.96;70.29;97874.64;226937;1267;22542;-82
2024/04/02 19:05:12;;;;;;;1.90;0.90;;;;;;;10.85;70.29;97879.50;226972;1271;22556;-82
2024/04/02 19:10:14;;;;;;;1.80;1.20;;;;;;;10.71;70.45;97869.94;226983;1269;22602;-83
2024/04/02 19:15:16;;;;;;;1.30;0.70;;;;;;;10.61;70.52;97868.04;226937;1270;22562;-82
2024/04/02 19:20:18;;;;;;;1.50;0.80;;;;;;;10.53;70.71;97870.80;226908;1273;22687;-83
2024/04/02 19:25:19;;;;;;;1.00;0.80;;;;;;;10.45;70.98;97877.40;227041;1272;22550;-83
2024/04/02 19:30:21;;;;;;;1.30;0.90;;;;;;;10.35;70.84;97880.66;226884;1266;22528;-82
2024/04/02 19:35:23;;;;;;;1.20;0.90;;;;;;;10.22;71.02;97885.59;226971;1267;22543;-82
2024/04/02 19:40:25;;;;;;;1.60;0.80;;;;;;;10.06;71.36;97884.02;226929;1273;22480;-81
2024/04/02 19:45:27;;;;;;;0.70;0.70;;;;;;;9.89;71.28;97888.00;226967;1273;22521;-84
2024/04/02 19:50:30;;;;;;;1.60;0.80;;;;;;;9.76;71.58;97890.09;226877;1272;22553;-82
2024/04/02 19:55:36;;;;;;;1.10;0.60;;;;;;;9.70;71.76;97891.44;226902;1270;22545;-83
2024/04/02 20:00:37;;;;;;;1.40;0.80;;;;;;;9.70;71.84;97893.79;226906;1273;22518;-83
2024/04/02 20:05:48;;;;;;;2.80;0.90;;;;;;;9.71;71.83;97890.14;226945;1269;22622;-83
2024/04/02 20:10:52;;;;;;;1.50;0.90;;;;;;;9.70;71.66;97888.76;226963;1273;22548;-83
2024/04/02 20:15:58;;;;;;;2.30;1.00;;;;;;;9.69;71.63;97892.40;227027;1272;22807;-83
2024/04/02 20:21:08;;;;;;;1.50;1.10;;;;;;;9.63;71.74;97893.84;226969;1273;23201;-83
2024/04/02 20:26:10;;;;;;;1.80;1.20;;;;;;;9.56;71.43;97896.67;226910;1273;22505;-83
2024/04/02 20:31:13;;;;;;;1.90;1.10;;;;;;;9.49;71.64;97898.06;226933;1267;22539;-83
2024/04/02 20:36:15;;;;;;;1.70;1.10;;;;;;;9.43;71.76;97900.89;226875;1273;22474;-83
2024/04/02 20:41:23;;;;;;;2.10;1.20;;;;;;;9.35;71.83;97896.98;227012;1270;24220;-83
2024/04/02 20:46:25;;;;;;;2.70;1.50;;;;;;;9.28;72.21;97892.29;227069;1273;22546;-82
2024/04/02 20:51:27;;;;;;;2.30;1.50;;;;;;;9.25;72.39;97890.77;226841;1265;22551;-82
2024/04/02 20:56:28;;;;;;;3.50;1.70;;;;;;;9.22;72.67;97888.82;226893;1270;22544;-84
2024/04/02 21:01:30;;;;;;;2.40;1.90;;;;;;;9.17;72.75;97885.83;226862;1273;22526;-83
2024/04/02 21:06:32;;;;;;;2.30;1.50;;;;;;;9.07;73.03;97882.15;226776;1266;22542;-83
2024/04/02 21:11:34;;;;;;;2.30;1.30;;;;;;;8.97;73.08;97882.58;226978;1267;25411;-83
2024/04/02 21:16:36;;;;;;;3.40;1.90;;;;;;;8.85;73.36;97883.38;226926;1266;24206;-84
2024/04/02 21:21:39;;;;;;;4.50;1.60;;;;;;;8.74;73.52;97886.05;226890;1273;22547;-82
2024/04/02 21:26:41;;;;;;;3.90;1.70;;;;;;;8.62;73.86;97886.86;226913;1267;22583;-83
2024/04/02 21:31:44;;;;;;;2.30;1.60;;;;;;;8.53;74.13;97882.82;226916;1266;22513;-84
2024/04/02 21:36:46;;;;;;;3.60;1.90;;;;;;;8.45;74.37;97887.48;226869;1270;24284;-83
2024/04/02 21:41:48;;;;;;;3.50;1.80;;;;;;;8.41;74.50;97893.34;226841;1273;22549;-82
2024/04/02 21:46:50;;;;;;;3.00;1.50;;;;;;;8.42;75.02;97893.33;226871;1273;23125;-84
2024/04/02 21:51:51;;;;;;;2.30;1.20;;;;;;;8.47;74.98;97903.05;226891;1267;22554;-83
2024/04/02 21:56:53;;;;;;;2.90;1.40;;;;;;;8.50;75.05;97900.71;226842;1266;22550;-84
2024/04/02 22:01:55;;;;;;;3.90;1.50;;;;;;;8.55;75.03;97903.25;226830;1268;22551;-84
2024/04/02 22:06:57;;;;;;;3.50;1.40;;;;;;;8.58;75.01;97905.70;226874;1273;22541;-83
2024/04/02 22:11:59;;;;;;;1.80;1.00;;;;;;;8.60;74.91;97908.01;226849;1267;22474;-83
2024/04/02 22:17:01;;;;;;;2.40;1.30;;;;;;;8.59;74.70;97912.23;226815;1273;23275;-81
2024/04/02 22:22:02;;;;;;;3.40;1.50;;;;;;;8.54;74.57;97912.28;226849;1270;22544;-81
2024/04/02 22:27:04;;;;;;;1.80;1.20;;;;;;;8.47;74.58;97914.59;226837;1269;22535;-83
2024/04/02 22:32:06;;;;;;;2.60;1.00;;;;;;;8.41;74.59;97912.99;226866;1270;22654;-84
2024/04/02 22:37:08;;;;;;;2.50;1.10;;;;;;;8.36;74.57;97923.44;226864;1269;22531;-83
2024/04/02 22:42:10;;;;;;;3.00;1.00;;;;;;;8.32;74.62;97925.20;226834;1267;25884;-82
2024/04/02 22:47:12;;;;;;;2.70;0.90;;;;;;;8.27;74.52;97923.21;226891;1270;22543;-82
2024/04/02 22:52:13;;;;;;;2.20;0.90;;;;;;;8.21;74.47;97925.02;226933;1270;22545;-82
2024/04/02 22:57:15;;;;;;;1.80;1.00;;;;;;;8.15;74.65;97925.20;226902;1266;22630;-79
2024/04/02 23:02:18;;;;;;;2.30;0.90;;;;;;;8.11;74.53;97927.81;226870;1266;22807;-82
2024/04/02 23:07:24;;;;;;;1.20;1.00;;;;;;;8.08;74.71;97930.09;226871;1273;22520;-82
2024/04/02 23:12:26;;;;;;;3.50;0.90;;;;;;;8.04;74.70;97931.52;226935;1269;22899;-82
2024/04/02 23:17:28;;;;;;;1.60;1.00;;;;;;;7.99;74.78;97940.04;226861;1269;22547;-84
2024/04/02 23:22:29;;;;;;;2.90;1.00;;;;;;;7.94;74.76;97946.08;226876;1273;22782;-83
2024/04/02 23:27:31;;;;;;;1.40;0.70;;;;;;;7.90;74.63;97948.91;226909;1270;23293;-81
2024/04/02 23:32:33;;;;;;;2.50;0.80;;;;;;;7.88;74.78;97950.71;226877;1267;25284;-83
2024/04/02 23:37:35;;;;;;;3.30;1.20;;;;;;;7.90;74.94;97950.38;227001;1267;22547;-82